Beaver, Wisconsin
Current Conditions -  °F | °C
As of 10:15 PM on Wednesday 26 Nov 2014 (Local Time) from KMNM Reporting Station
Overcast Overcast  
Wind Chill: 15°   Ceiling: 9000
Heat Index: 21°   Visibility: 10mi
Dew Point: 18°   Wind: 5mph
Humidity: 86%   Direction: 330°NNW
Pressure: 30.16"   Gusts: NA
Location:  45.272°N, 88.1562°W
Report Text: KMNM 270415Z AUTO 33004KT 10SM OVC090 M06/M08 A3016 RMK AO1
Loading
Personal Weather Stations






























Interactive Weather Map New forecast layout! Learn more

10-Day Weather Forecast

Advertisements
Track Severe Weather on mobile